Time;durP1;ratioP1;P1;durP2;ratioP2;P2;SDS_P1;SDS_P2;PMS_P1;PMS_P2;Temp;Humidity;BMP_temperature;BMP_pressure;BME280_temperature;BME280_humidity;BME280_pressure;Samples;Min_cycle;Max_cycle;Signal;HPM_P1;HPM_P2
2022/10/06 00:00:44;;;;;;;8.88;5.82;;;;;;;15.09;100.00;101035.50;5054707;28;20581;-73
2022/10/06 00:03:11;;;;;;;7.72;4.97;;;;;;;15.12;100.00;101032.59;5055717;28;20201;-74
2022/10/06 00:05:38;;;;;;;11.60;4.85;;;;;;;15.13;100.00;101030.78;5054477;28;20201;-73
2022/10/06 00:08:06;;;;;;;6.15;5.03;;;;;;;15.13;100.00;101033.50;5054871;28;20221;-73
2022/10/06 00:10:32;;;;;;;7.57;4.80;;;;;;;15.12;100.00;101032.59;5055139;28;20201;-74
2022/10/06 00:12:59;;;;;;;5.85;4.40;;;;;;;15.18;100.00;101036.81;5053687;28;20197;-72
2022/10/06 00:15:28;;;;;;;5.97;4.88;;;;;;;15.18;100.00;101032.28;5052960;28;20200;-73
2022/10/06 00:17:56;;;;;;;6.82;4.65;;;;;;;15.22;100.00;101046.56;5053189;28;20706;-74
2022/10/06 00:20:23;;;;;;;7.38;4.88;;;;;;;15.33;100.00;101036.00;5053316;28;20666;-73
2022/10/06 00:22:51;;;;;;;6.65;4.55;;;;;;;15.33;100.00;101038.72;5033918;28;20198;-74
2022/10/06 00:25:21;;;;;;;6.80;4.15;;;;;;;15.35;100.00;101042.22;5048670;28;20197;-74
2022/10/06 00:27:50;;;;;;;6.70;4.97;;;;;;;15.39;100.00;101046.50;5053076;28;20249;-74
2022/10/06 00:30:20;;;;;;;5.18;4.68;;;;;;;15.39;100.00;101043.78;5053666;28;20209;-74
2022/10/06 00:32:51;;;;;;;8.90;5.68;;;;;;;15.36;100.00;101043.09;5052763;28;20270;-75
2022/10/06 00:35:18;;;;;;;6.68;4.82;;;;;;;15.39;100.00;101053.75;5053475;28;20578;-75
2022/10/06 00:37:45;;;;;;;5.70;4.82;;;;;;;15.37;100.00;101047.53;5053495;28;20209;-75
2022/10/06 00:40:12;;;;;;;7.60;4.80;;;;;;;15.36;100.00;101049.38;5053018;28;20212;-75
2022/10/06 00:42:51;;;;;;;9.02;4.97;;;;;;;15.38;100.00;101062.88;5053316;28;20201;-74
2022/10/06 00:45:23;;;;;;;6.18;4.95;;;;;;;15.37;100.00;101070.13;5052856;28;20190;-74
2022/10/06 00:47:50;;;;;;;5.70;4.63;;;;;;;15.31;100.00;101066.88;5054004;28;20225;-75
2022/10/06 00:50:16;;;;;;;7.18;4.95;;;;;;;15.30;100.00;101076.84;5047788;28;20253;-74
2022/10/06 00:52:43;;;;;;;7.15;5.25;;;;;;;15.29;100.00;101079.66;5057203;28;20205;-74
2022/10/06 00:55:10;;;;;;;7.22;4.20;;;;;;;15.34;100.00;101089.28;5056667;28;20185;-75
2022/10/06 00:57:39;;;;;;;7.28;5.25;;;;;;;15.36;100.00;101095.53;5057364;28;20324;-74
2022/10/06 01:00:09;;;;;;;11.05;5.13;;;;;;;15.40;100.00;101093.53;5057120;28;20232;-75
2022/10/06 01:02:40;;;;;;;8.45;5.13;;;;;;;15.42;100.00;101099.72;5057472;28;20185;-75
2022/10/06 01:05:10;;;;;;;6.60;4.80;;;;;;;15.46;100.00;101093.16;5057041;28;20291;-75
2022/10/06 01:07:36;;;;;;;5.85;4.70;;;;;;;15.53;100.00;101099.16;5057187;28;20225;-75
2022/10/06 01:10:04;;;;;;;5.22;4.72;;;;;;;15.59;100.00;101094.25;5055159;28;20197;-74
2022/10/06 01:12:33;;;;;;;5.20;4.10;;;;;;;15.63;100.00;101095.84;5052622;28;20548;-74
2022/10/06 01:15:01;;;;;;;8.95;4.93;;;;;;;15.59;100.00;101091.53;5041187;28;20204;-74
2022/10/06 01:17:34;;;;;;;9.68;4.47;;;;;;;15.57;100.00;101090.75;5052495;28;20224;-75
2022/10/06 01:20:07;;;;;;;8.32;4.80;;;;;;;15.58;100.00;101092.50;5053353;28;20563;-74
2022/10/06 01:22:37;;;;;;;6.47;4.82;;;;;;;15.64;100.00;101103.00;5053041;28;20196;-75
2022/10/06 01:25:06;;;;;;;5.82;4.82;;;;;;;15.78;100.00;101106.84;5052560;28;20205;-74
2022/10/06 01:27:34;;;;;;;8.07;4.68;;;;;;;15.86;100.00;101099.16;5052592;28;20221;-74
2022/10/06 01:30:02;;;;;;;6.97;4.70;;;;;;;15.97;100.00;101099.41;5052821;28;20205;-75
2022/10/06 01:32:34;;;;;;;5.68;4.60;;;;;;;16.01;100.00;101101.00;5052121;28;20193;-75
2022/10/06 01:35:00;;;;;;;7.35;4.97;;;;;;;16.10;100.00;101109.56;5052184;28;20186;-74
2022/10/06 01:37:27;;;;;;;5.65;3.75;;;;;;;16.19;100.00;101109.94;5052186;28;20221;-77
2022/10/06 01:39:54;;;;;;;5.68;5.07;;;;;;;16.23;100.00;101110.63;5052405;28;20570;-75
2022/10/06 01:42:21;;;;;;;6.13;5.05;;;;;;;16.23;100.00;101122.34;5032701;28;20273;-74
2022/10/06 01:44:47;;;;;;;14.73;4.75;;;;;;;16.30;100.00;101128.31;5033467;28;20213;-75
2022/10/06 01:47:14;;;;;;;7.30;4.68;;;;;;;16.30;100.00;101127.44;5051357;28;20732;-76
2022/10/06 01:49:40;;;;;;;6.63;4.43;;;;;;;16.38;100.00;101134.19;5052375;28;20205;-75
2022/10/06 01:52:07;;;;;;;4.88;4.38;;;;;;;16.40;100.00;101135.00;5052303;28;20205;-75
2022/10/06 01:54:33;;;;;;;5.57;4.80;;;;;;;16.38;100.00;101141.50;5041483;28;20198;-75
2022/10/06 01:57:01;;;;;;;5.50;4.00;;;;;;;16.33;100.00;101144.47;5043070;28;20223;-75
2022/10/06 01:59:28;;;;;;;6.15;4.68;;;;;;;16.33;100.00;101152.63;5052946;28;20406;-75
2022/10/06 02:01:54;;;;;;;6.38;4.50;;;;;;;16.24;100.00;101158.59;5054586;28;20196;-73
2022/10/06 02:04:21;;;;;;;6.45;4.70;;;;;;;16.25;100.00;101160.34;5053572;28;20208;-75
2022/10/06 02:06:47;;;;;;;5.35;4.78;;;;;;;16.16;100.00;101164.44;5058038;28;20229;-75
2022/10/06 02:09:14;;;;;;;6.70;5.18;;;;;;;16.09;100.00;101173.91;5068748;28;20205;-74
2022/10/06 02:11:40;;;;;;;6.15;5.18;;;;;;;16.01;100.00;101185.22;5063583;28;20228;-75
2022/10/06 02:14:08;;;;;;;6.05;4.82;;;;;;;15.98;100.00;101184.50;5063343;28;20205;-75
2022/10/06 02:16:35;;;;;;;8.25;4.60;;;;;;;15.97;100.00;101189.06;5066036;28;20213;-75
2022/10/06 02:19:01;;;;;;;8.98;4.60;;;;;;;15.89;100.00;101198.59;5066267;28;20208;-75
2022/10/06 02:21:28;;;;;;;6.05;4.43;;;;;;;15.93;100.00;101194.75;5069706;28;20296;-74
2022/10/06 02:23:54;;;;;;;11.40;5.10;;;;;;;15.90;100.00;101194.94;5070853;28;20265;-75
2022/10/06 02:26:21;;;;;;;5.57;4.28;;;;;;;15.89;100.00;101202.19;5068909;28;20323;-74
2022/10/06 02:28:48;;;;;;;6.93;5.03;;;;;;;15.87;100.00;101201.38;5069685;28;20192;-75
2022/10/06 02:31:16;;;;;;;8.02;4.68;;;;;;;15.86;100.00;101209.63;5068974;28;20272;-75
2022/10/06 02:33:43;;;;;;;6.30;4.75;;;;;;;15.85;100.00;101216.88;5070071;28;20225;-73
2022/10/06 02:36:12;;;;;;;6.95;4.63;;;;;;;15.83;100.00;101227.00;5070023;28;20201;-74
2022/10/06 02:38:38;;;;;;;6.13;4.72;;;;;;;15.78;100.00;101229.94;5070281;28;20276;-73
2022/10/06 02:41:06;;;;;;;5.10;4.60;;;;;;;15.81;100.00;101221.63;5068521;28;20204;-75
2022/10/06 02:43:34;;;;;;;8.57;4.70;;;;;;;15.74;100.00;101243.78;5070821;28;20228;-75
2022/10/06 02:46:02;;;;;;;9.07;4.20;;;;;;;15.73;100.00;101242.88;5068985;28;20220;-74
2022/10/06 02:48:32;;;;;;;8.30;4.40;;;;;;;15.74;100.00;101251.94;5070319;28;20284;-74
2022/10/06 02:51:01;;;;;;;6.78;4.55;;;;;;;15.79;100.00;101249.84;5068682;28;20197;-74
2022/10/06 02:53:28;;;;;;;4.60;4.15;;;;;;;15.77;100.00;101255.34;5056937;28;20211;-74
2022/10/06 02:55:59;;;;;;;7.47;4.15;;;;;;;15.76;100.00;101269.00;5055233;28;20197;-74
2022/10/06 02:58:26;;;;;;;6.80;4.07;;;;;;;15.76;100.00;101271.72;5046423;28;20248;-75
2022/10/06 03:00:53;;;;;;;6.35;3.88;;;;;;;15.79;100.00;101275.16;5055422;28;20201;-74
2022/10/06 03:03:19;;;;;;;5.50;3.70;;;;;;;15.81;100.00;101273.22;5054381;28;20197;-74
2022/10/06 03:05:47;;;;;;;7.07;3.30;;;;;;;15.80;100.00;101276.88;5055339;28;20201;-74
2022/10/06 03:08:13;;;;;;;4.07;3.40;;;;;;;15.84;100.00;101277.63;5054716;28;20248;-73
2022/10/06 03:10:40;;;;;;;5.53;4.00;;;;;;;15.85;100.00;101287.50;5053547;28;20193;-74
2022/10/06 03:13:07;;;;;;;4.28;3.40;;;;;;;15.80;100.00;101295.03;5054831;28;20624;-75
2022/10/06 03:15:33;;;;;;;4.60;3.80;;;;;;;15.80;100.00;101297.75;5054339;28;20564;-74
2022/10/06 03:18:00;;;;;;;7.05;3.97;;;;;;;15.71;100.00;101300.97;5054092;28;20224;-74
2022/10/06 03:20:26;;;;;;;6.53;4.22;;;;;;;15.64;100.00;101312.09;5054570;28;20199;-75
2022/10/06 03:22:54;;;;;;;4.70;3.72;;;;;;;15.61;100.00;101309.56;5054791;28;20209;-74
2022/10/06 03:25:21;;;;;;;7.45;4.18;;;;;;;15.57;100.00;101305.22;5054323;28;20201;-75
2022/10/06 03:27:47;;;;;;;6.10;3.97;;;;;;;15.56;100.00;101308.06;5054052;28;20495;-74
2022/10/06 03:30:14;;;;;;;7.38;5.03;;;;;;;15.57;100.00;101310.66;5054041;28;20671;-74
2022/10/06 03:32:41;;;;;;;6.28;5.00;;;;;;;15.56;100.00;101316.19;5053743;28;20209;-74
2022/10/06 03:35:08;;;;;;;4.05;2.15;;;;;;;15.62;100.00;101319.47;5053241;28;20193;-75
2022/10/06 03:37:35;;;;;;;3.22;2.05;;;;;;;15.71;100.00;101314.53;5053712;28;20216;-74
2022/10/06 03:40:03;;;;;;;3.25;2.10;;;;;;;15.64;100.00;101317.53;5063121;28;20205;-74
2022/10/06 03:42:31;;;;;;;2.63;2.05;;;;;;;15.63;100.00;101323.06;5065883;28;20197;-75
2022/10/06 03:44:57;;;;;;;2.92;1.95;;;;;;;15.68;100.00;101326.41;5055752;28;20659;-74
2022/10/06 03:47:24;;;;;;;2.63;1.80;;;;;;;15.60;100.00;101334.06;5055626;28;20225;-75
2022/10/06 03:49:50;;;;;;;5.47;1.60;;;;;;;15.64;100.00;101344.69;5056187;28;20722;-74
2022/10/06 03:52:17;;;;;;;4.03;1.60;;;;;;;15.67;100.00;101342.78;5054593;28;20212;-74
2022/10/06 03:54:44;;;;;;;3.30;1.30;;;;;;;15.70;100.00;101348.94;5055879;28;20200;-74
2022/10/06 03:57:12;;;;;;;3.42;1.23;;;;;;;15.68;100.00;101352.69;5055046;28;20574;-75
2022/10/06 03:59:38;;;;;;;3.33;1.02;;;;;;;15.74;100.00;101349.69;5054176;28;20211;-74
2022/10/06 04:02:05;;;;;;;2.83;1.30;;;;;;;15.71;100.00;101349.84;5053186;28;20208;-74
2022/10/06 04:04:31;;;;;;;1.92;1.20;;;;;;;15.69;100.00;101349.00;5055744;28;20197;-75
2022/10/06 04:06:58;;;;;;;3.58;1.63;;;;;;;15.64;100.00;101346.53;5054704;28;20225;-76
2022/10/06 04:09:24;;;;;;;2.75;1.15;;;;;;;15.66;100.00;101355.47;5055472;28;20703;-74
2022/10/06 04:11:51;;;;;;;3.20;1.33;;;;;;;15.66;100.00;101352.75;5054105;28;20550;-75
2022/10/06 04:14:19;;;;;;;9.20;1.40;;;;;;;15.53;100.00;101360.66;5054862;28;20197;-75
2022/10/06 04:16:47;;;;;;;2.65;1.20;;;;;;;15.55;100.00;101363.28;5043613;28;20226;-74
2022/10/06 04:19:15;;;;;;;2.30;0.90;;;;;;;15.58;100.00;101373.97;5050577;28;20208;-76
2022/10/06 04:21:44;;;;;;;6.30;1.30;;;;;;;15.49;100.00;101379.88;5054965;28;20189;-76
2022/10/06 04:24:12;;;;;;;3.35;1.25;;;;;;;15.64;100.00;101379.13;5055618;28;20251;-75
2022/10/06 04:26:41;;;;;;;3.55;1.20;;;;;;;15.52;100.00;101383.34;5053595;28;20605;-75
2022/10/06 04:29:07;;;;;;;5.15;1.15;;;;;;;15.51;100.00;101387.03;5051845;28;20229;-76
2022/10/06 04:31:37;;;;;;;3.28;1.20;;;;;;;15.49;100.00;101396.16;5053621;28;20232;-75
2022/10/06 04:34:06;;;;;;;5.85;1.30;;;;;;;15.56;100.00;101395.81;5052973;28;20193;-75
2022/10/06 04:36:34;;;;;;;4.97;1.60;;;;;;;15.54;100.00;101405.00;5053195;28;20222;-75
2022/10/06 04:39:03;;;;;;;5.55;0.98;;;;;;;15.45;100.00;101392.75;5053445;28;20201;-77
2022/10/06 04:41:31;;;;;;;3.22;1.05;;;;;;;15.48;100.00;101406.16;5052988;28;20201;-75
2022/10/06 04:43:58;;;;;;;5.10;1.08;;;;;;;15.47;100.00;101407.13;5053330;28;20212;-75
2022/10/06 04:46:26;;;;;;;4.65;1.90;;;;;;;15.43;100.00;101409.09;5052725;28;20205;-76
2022/10/06 04:48:55;;;;;;;5.30;1.33;;;;;;;15.43;100.00;101413.66;5052410;28;20222;-75
2022/10/06 04:51:23;;;;;;;4.32;1.42;;;;;;;15.49;100.00;101412.47;5053021;28;20197;-74
2022/10/06 04:53:50;;;;;;;3.40;1.58;;;;;;;15.45;100.00;101422.59;5052905;28;20204;-75
2022/10/06 04:56:18;;;;;;;3.05;1.40;;;;;;;15.39;100.00;101425.63;5055943;28;20201;-74
2022/10/06 04:58:47;;;;;;;3.88;1.60;;;;;;;15.45;100.00;101427.16;5055109;28;20201;-75
2022/10/06 05:01:15;;;;;;;4.03;1.50;;;;;;;15.30;100.00;101412.50;5055344;28;20197;-74
2022/10/06 05:03:42;;;;;;;3.50;1.40;;;;;;;15.33;100.00;101425.91;5054925;28;20540;-78
2022/10/06 05:06:13;;;;;;;5.45;1.55;;;;;;;15.21;100.00;101430.09;5053363;28;20212;-75
2022/10/06 05:08:40;;;;;;;2.38;0.98;;;;;;;15.03;100.00;101448.16;5052711;28;20613;-75
2022/10/06 05:11:09;;;;;;;2.40;1.33;;;;;;;14.91;100.00;101448.75;5053442;28;20193;-75
2022/10/06 05:13:37;;;;;;;5.30;1.80;;;;;;;14.80;100.00;101463.66;5053940;28;20194;-76
2022/10/06 05:16:05;;;;;;;3.30;1.25;;;;;;;14.70;100.00;101462.34;5052833;28;20208;-76
2022/10/06 05:18:33;;;;;;;7.63;4.60;;;;;;;14.66;100.00;101476.13;5052599;28;20197;-76
2022/10/06 05:21:02;;;;;;;4.40;2.50;;;;;;;14.52;100.00;101490.25;5052723;28;20209;-75
2022/10/06 05:23:31;;;;;;;3.45;1.70;;;;;;;14.36;100.00;101479.22;5055160;28;20202;-76
2022/10/06 05:26:00;;;;;;;6.38;2.17;;;;;;;14.32;100.00;101478.44;5053541;28;20682;-75
2022/10/06 05:28:28;;;;;;;2.95;1.60;;;;;;;14.18;100.00;101481.78;5052586;28;20225;-75
2022/10/06 05:30:56;;;;;;;2.95;1.65;;;;;;;14.13;100.00;101494.66;5053146;28;20258;-75
2022/10/06 05:33:23;;;;;;;6.22;1.60;;;;;;;14.08;100.00;101502.06;5052760;28;20212;-75
2022/10/06 05:35:51;;;;;;;11.43;1.77;;;;;;;14.07;100.00;101505.72;5052159;28;20198;-77
2022/10/06 05:38:18;;;;;;;4.38;1.40;;;;;;;14.10;100.00;101510.13;5051391;28;20293;-74
2022/10/06 05:40:45;;;;;;;2.83;1.02;;;;;;;14.09;100.00;101511.09;5052883;28;20204;-76
2022/10/06 05:43:12;;;;;;;7.50;3.15;;;;;;;14.07;100.00;101515.69;5053153;28;20667;-75
2022/10/06 05:45:39;;;;;;;4.07;1.40;;;;;;;14.07;100.00;101521.09;5035014;28;20201;-76
2022/10/06 05:48:05;;;;;;;4.82;1.88;;;;;;;14.11;100.00;101517.28;5052489;28;20324;-75
2022/10/06 05:50:32;;;;;;;6.15;1.65;;;;;;;14.15;100.00;101522.53;5052879;28;20201;-76
2022/10/06 05:52:58;;;;;;;6.55;1.92;;;;;;;14.18;100.00;101526.97;5053039;28;20207;-76
2022/10/06 05:55:25;;;;;;;3.45;1.50;;;;;;;14.12;100.00;101524.50;5053052;28;20205;-76
2022/10/06 05:57:54;;;;;;;4.55;1.52;;;;;;;14.07;100.00;101538.22;5054314;28;20263;-77
2022/10/06 06:00:21;;;;;;;7.15;1.67;;;;;;;14.22;100.00;101542.09;5031702;28;20706;-77
2022/10/06 06:02:47;;;;;;;3.97;1.30;;;;;;;14.21;100.00;101547.63;5032324;28;20691;-75
2022/10/06 06:05:14;;;;;;;5.18;1.40;;;;;;;14.17;100.00;101555.84;5032536;28;20206;-76
2022/10/06 06:07:40;;;;;;;5.28;1.40;;;;;;;14.15;100.00;101560.44;5032350;28;20736;-76
2022/10/06 06:10:08;;;;;;;5.63;2.15;;;;;;;14.23;100.00;101560.16;5032805;28;20201;-75
2022/10/06 06:12:34;;;;;;;6.32;1.70;;;;;;;14.35;100.00;101569.56;5032234;28;20198;-76
2022/10/06 06:17:47;;;;;;;5.40;1.80;;;;;;;14.73;100.00;101578.78;5033681;28;20217;-78
2022/10/06 06:20:13;;;;;;;8.05;1.90;;;;;;;14.93;100.00;101577.03;5031935;28;20198;-76
2022/10/06 06:22:39;;;;;;;9.68;2.05;;;;;;;15.10;100.00;101595.25;5032070;28;20593;-76
2022/10/06 06:25:07;;;;;;;5.55;2.05;;;;;;;15.27;100.00;101592.66;5052142;28;20205;-76
2022/10/06 06:27:34;;;;;;;4.50;1.40;;;;;;;15.45;100.00;101600.91;5082221;22;20314;-72
2022/10/06 06:30:02;;;;;;;2.80;1.23;;;;;;;15.71;100.00;101602.41;5094682;28;20231;-75
2022/10/06 06:32:29;;;;;;;5.70;1.60;;;;;;;16.04;100.00;101605.34;5094347;28;20200;-74
2022/10/06 06:34:56;;;;;;;4.68;1.92;;;;;;;16.21;100.00;101615.34;5093791;28;20210;-72
2022/10/06 06:37:22;;;;;;;6.50;1.52;;;;;;;16.53;100.00;101624.63;5093966;28;20621;-72
2022/10/06 06:39:49;;;;;;;7.85;1.50;;;;;;;16.76;100.00;101625.28;5093561;28;20215;-72
2022/10/06 06:42:15;;;;;;;6.30;1.50;;;;;;;17.04;97.86;101631.06;5093467;28;20246;-73
2022/10/06 06:44:42;;;;;;;6.60;1.70;;;;;;;17.38;96.77;101636.56;5093869;28;20210;-72
2022/10/06 06:47:09;;;;;;;5.45;1.60;;;;;;;17.92;93.47;101653.56;5097530;28;20234;-72
2022/10/06 06:49:37;;;;;;;12.88;5.10;;;;;;;18.38;86.08;101660.94;5097628;28;20227;-72
2022/10/06 06:52:04;;;;;;;6.07;1.50;;;;;;;18.57;83.58;101668.94;5099733;28;20203;-72
2022/10/06 06:54:30;;;;;;;4.97;1.33;;;;;;;18.99;82.88;101670.09;5104586;28;20664;-72
2022/10/06 06:56:57;;;;;;;4.63;1.60;;;;;;;19.03;79.53;101671.69;5104965;28;20227;-72
2022/10/06 06:59:24;;;;;;;6.10;1.90;;;;;;;19.28;77.92;101665.59;5103326;28;20609;-71
2022/10/06 07:01:50;;;;;;;5.37;1.50;;;;;;;19.63;73.45;101682.50;5098019;28;20517;-71
2022/10/06 07:04:18;;;;;;;9.40;1.80;;;;;;;20.05;66.70;101690.81;5101898;28;20440;-71
2022/10/06 07:06:55;;;;;;;5.20;1.40;;;;;;;20.34;66.32;101688.91;5099449;28;20444;-72
2022/10/06 07:09:22;;;;;;;5.20;1.50;;;;;;;20.88;60.99;101691.69;5098842;28;20469;-72
2022/10/06 07:11:50;;;;;;;4.83;1.20;;;;;;;20.74;59.31;101683.53;5098806;28;20450;-71
2022/10/06 07:14:17;;;;;;;3.43;0.90;;;;;;;21.15;56.08;101685.28;5097941;28;20442;-72
2022/10/06 07:25:10;;;;;;;4.87;1.30;;;;;;;22.76;47.52;101705.63;5095990;28;20421;-72
2022/10/06 07:27:40;;;;;;;4.70;1.33;;;;;;;22.69;45.09;101711.59;5096668;28;20837;-72
2022/10/06 07:30:09;;;;;;;4.13;1.20;;;;;;;23.37;45.22;101717.38;5096928;28;20491;-73
2022/10/06 07:32:36;;;;;;;5.03;1.33;;;;;;;23.83;43.94;101716.50;5097529;28;20906;-72
2022/10/06 07:35:06;;;;;;;3.20;1.23;;;;;;;24.34;42.42;101727.00;5096800;28;20472;-71
2022/10/06 07:37:35;;;;;;;4.63;1.40;;;;;;;24.06;41.25;101738.50;5096419;28;20590;-73
2022/10/06 07:40:02;;;;;;;4.10;1.50;;;;;;;24.84;40.32;101744.97;5097077;28;20442;-71
2022/10/06 07:42:29;;;;;;;6.43;1.43;;;;;;;24.41;40.83;101734.75;5095909;28;20442;-72
2022/10/06 07:47:39;;;;;;;3.83;1.30;;;;;;;24.60;40.29;101734.13;5095600;28;20441;-72
2022/10/06 07:50:11;;;;;;;5.67;1.30;;;;;;;23.59;40.46;101744.06;5096244;28;20843;-73
2022/10/06 07:52:38;;;;;;;5.73;1.40;;;;;;;23.78;41.55;101738.00;5096359;28;20446;-71
2022/10/06 07:55:05;;;;;;;2.77;1.03;;;;;;;24.59;40.17;101744.25;5097485;28;20442;-72
2022/10/06 07:57:34;;;;;;;3.87;1.30;;;;;;;25.30;39.37;101752.06;5094972;28;20462;-73
2022/10/06 08:00:01;;;;;;;3.53;1.33;;;;;;;26.42;37.49;101754.03;5094879;28;20439;-72
2022/10/06 08:02:27;;;;;;;2.87;1.30;;;;;;;25.78;37.51;101751.56;5098621;28;20465;-71
2022/10/06 08:04:54;;;;;;;4.23;1.40;;;;;;;25.38;37.76;101752.28;5097450;28;20444;-73
2022/10/06 08:07:22;;;;;;;5.93;1.50;;;;;;;25.51;37.63;101749.34;5096738;28;20477;-73
2022/10/06 08:09:48;;;;;;;3.67;1.60;;;;;;;25.28;38.20;101756.81;5096016;28;21003;-73
2022/10/06 08:12:33;;;;;;;6.77;1.80;;;;;;;25.80;37.55;101758.69;5097334;28;20449;-71
2022/10/06 08:15:01;;;;;;;4.23;1.20;;;;;;;25.45;37.89;101756.25;5105174;28;20434;-72
2022/10/06 08:17:28;;;;;;;4.93;1.30;;;;;;;25.19;37.59;101777.81;5105907;28;20466;-71
2022/10/06 08:19:55;;;;;;;5.23;2.97;;;;;;;24.24;39.42;101769.16;5109131;28;20441;-72
2022/10/06 08:22:26;;;;;;;7.23;2.17;;;;;;;23.92;39.61;101769.91;5109546;28;20513;-73
2022/10/06 08:24:53;;;;;;;6.30;1.90;;;;;;;23.56;41.05;101782.78;5109246;28;20433;-74
2022/10/06 08:27:22;;;;;;;6.67;1.60;;;;;;;22.95;41.39;101785.66;5097968;28;20523;-72
2022/10/06 08:29:48;;;;;;;6.37;1.70;;;;;;;23.96;39.64;101793.44;5094662;28;21074;-71
2022/10/06 08:32:16;;;;;;;4.20;1.50;;;;;;;24.19;39.82;101782.44;5094190;28;20450;-71
2022/10/06 08:34:42;;;;;;;4.50;1.27;;;;;;;24.81;39.02;101790.19;5094364;28;20442;-72
2022/10/06 08:37:09;;;;;;;10.00;3.50;;;;;;;25.66;37.46;101796.75;5096607;28;20472;-72
2022/10/06 08:39:37;;;;;;;8.27;4.10;;;;;;;26.57;36.21;101796.00;5093435;28;20434;-70
2022/10/06 08:42:03;;;;;;;4.23;2.67;;;;;;;27.07;35.58;101802.50;5093386;28;20442;-73
2022/10/06 08:44:35;;;;;;;4.60;1.70;;;;;;;27.10;34.38;101810.53;5094255;28;20429;-72
2022/10/06 08:47:10;;;;;;;4.97;1.57;;;;;;;26.77;35.12;101813.53;5093079;28;20468;-72
2022/10/06 08:49:39;;;;;;;11.07;1.67;;;;;;;27.29;33.96;101816.09;5092931;28;20924;-72
2022/10/06 08:52:19;;;;;;;6.87;1.40;;;;;;;27.91;34.11;101816.69;5093859;28;20445;-72
2022/10/06 08:54:53;;;;;;;5.67;2.00;;;;;;;28.24;33.77;101803.31;5094815;28;20441;-72
2022/10/06 08:57:20;;;;;;;5.80;2.03;;;;;;;30.23;31.36;101822.75;5093736;28;20481;-72
2022/10/06 08:59:51;;;;;;;5.00;1.40;;;;;;;31.37;29.27;101819.59;5095397;28;20442;-72
2022/10/06 09:02:27;;;;;;;6.97;2.30;;;;;;;30.64;30.08;101831.34;5094731;28;20472;-72
2022/10/06 09:04:56;;;;;;;4.57;1.50;;;;;;;32.18;28.74;101832.69;5094052;28;20437;-72
2022/10/06 09:07:29;;;;;;;5.23;1.67;;;;;;;30.42;29.72;101839.25;5093674;28;20473;-71
2022/10/06 09:10:16;;;;;;;5.03;1.60;;;;;;;30.02;30.38;101831.47;5094050;28;20531;-72
2022/10/06 09:12:47;;;;;;;5.63;2.00;;;;;;;30.80;29.79;101836.09;5093890;28;20499;-72
2022/10/06 09:15:29;;;;;;;5.17;1.60;;;;;;;31.10;28.72;101838.31;5093517;28;20437;-71
2022/10/06 09:18:02;;;;;;;4.27;2.80;;;;;;;29.49;30.93;101836.06;5094686;28;20454;-73
2022/10/06 09:20:34;;;;;;;5.33;2.40;;;;;;;28.26;32.54;101831.72;5094516;28;20445;-73
2022/10/06 09:23:02;;;;;;;4.50;1.23;;;;;;;29.39;31.28;101841.66;5094305;28;20430;-72
2022/10/06 09:25:30;;;;;;;6.40;2.17;;;;;;;31.15;28.64;101843.38;5094406;28;20437;-72
2022/10/06 09:27:58;;;;;;;3.60;1.10;;;;;;;27.91;31.79;101841.59;5093201;28;20470;-73
2022/10/06 09:30:26;;;;;;;5.00;1.30;;;;;;;26.65;33.89;101839.50;5093531;28;20478;-70
2022/10/06 09:32:58;;;;;;;5.13;1.40;;;;;;;27.36;32.61;101838.53;5097933;28;20442;-71
2022/10/06 09:35:27;;;;;;;7.13;1.63;;;;;;;29.06;31.14;101841.31;5103915;28;20465;-74
2022/10/06 09:37:57;;;;;;;3.90;1.40;;;;;;;28.63;31.47;101837.31;5093847;28;20538;-72
2022/10/06 09:40:40;;;;;;;4.13;1.13;;;;;;;31.23;29.32;101839.72;5093822;28;20966;-72
2022/10/06 09:43:19;;;;;;;7.00;1.63;;;;;;;32.24;27.96;101855.31;5095125;28;20479;-72
2022/10/06 09:45:45;;;;;;;5.77;1.20;;;;;;;32.45;27.54;101850.03;5093888;28;20635;-73
2022/10/06 09:48:13;;;;;;;4.33;1.17;;;;;;;30.21;29.46;101852.59;5093546;28;20458;-72
2022/10/06 09:50:40;;;;;;;5.23;1.00;;;;;;;27.94;31.76;101848.72;5093997;28;20489;-71
2022/10/06 09:53:15;;;;;;;3.97;1.10;;;;;;;25.36;34.89;101848.91;5094469;28;20541;-72
2022/10/06 09:55:53;;;;;;;3.23;1.33;;;;;;;24.68;36.94;101842.66;5094812;28;20434;-73
2022/10/06 09:58:31;;;;;;;6.27;2.90;;;;;;;25.87;35.85;101832.63;5093184;28;20497;-73
2022/10/06 10:01:00;;;;;;;2.90;1.10;;;;;;;24.88;36.55;101842.91;5094011;28;20428;-71
2022/10/06 10:03:41;;;;;;;3.10;1.30;;;;;;;25.06;36.15;101841.34;5094319;28;20444;-72
2022/10/06 10:06:08;;;;;;;4.97;1.53;;;;;;;24.94;36.49;101839.59;5094332;28;20437;-73
2022/10/06 10:08:35;;;;;;;7.80;1.53;;;;;;;25.11;36.90;101836.31;5093712;28;20465;-74
2022/10/06 10:14:03;;;;;;;6.17;1.70;;;;;;;25.31;36.73;101840.19;5094456;28;20443;-72
2022/10/06 10:16:33;;;;;;;4.20;1.17;;;;;;;26.04;36.04;101839.47;5096791;28;20507;-72
2022/10/06 10:19:00;;;;;;;7.93;1.50;;;;;;;27.75;33.70;101844.06;5095114;28;20856;-72
2022/10/06 10:21:32;;;;;;;4.07;1.43;;;;;;;28.32;32.89;101839.44;5095501;28;20453;-71
2022/10/06 10:24:01;;;;;;;7.37;1.40;;;;;;;28.53;32.33;101833.69;5106484;28;20981;-72
2022/10/06 10:26:45;;;;;;;4.40;1.63;;;;;;;29.37;30.88;101840.09;5097857;28;20528;-72
2022/10/06 10:29:33;;;;;;;6.97;1.60;;;;;;;28.00;32.80;101837.94;5098588;28;20473;-73
2022/10/06 10:32:08;;;;;;;5.27;1.50;;;;;;;26.01;35.21;101829.56;5098049;28;20432;-73
2022/10/06 10:34:57;;;;;;;9.57;1.47;;;;;;;26.10;35.61;101826.00;5097727;28;20472;-72
2022/10/06 10:37:31;;;;;;;5.43;1.40;;;;;;;26.52;34.66;101834.19;5097919;28;20530;-73
2022/10/06 10:40:01;;;;;;;11.30;5.73;;;;;;;25.01;36.21;101842.72;5098041;28;20765;-72
2022/10/06 10:42:33;;;;;;;12.83;4.10;;;;;;;26.08;35.14;101841.81;5098273;28;20545;-74
2022/10/06 10:45:03;;;;;;;13.20;5.07;;;;;;;26.94;33.89;101834.06;5100550;28;20429;-73
2022/10/06 10:47:34;;;;;;;3.97;1.90;;;;;;;27.43;33.67;101832.28;5101116;28;20461;-74
2022/10/06 10:50:08;;;;;;;5.60;1.77;;;;;;;28.66;31.55;101839.78;5098217;28;20539;-72
2022/10/06 10:52:40;;;;;;;5.57;1.40;;;;;;;31.00;29.35;101848.72;5097209;28;20429;-73
2022/10/06 10:55:18;;;;;;;3.23;1.30;;;;;;;33.10;27.00;101857.28;5097565;28;20444;-73
2022/10/06 10:57:48;;;;;;;3.50;1.40;;;;;;;34.05;26.49;101853.28;5096671;28;20474;-72
2022/10/06 11:00:19;;;;;;;5.30;1.40;;;;;;;33.81;26.07;101854.41;5096974;28;20438;-72
2022/10/06 11:02:46;;;;;;;3.97;1.53;;;;;;;34.20;26.07;101861.72;5097501;28;20461;-72
2022/10/06 11:05:17;;;;;;;1.97;0.93;;;;;;;33.60;25.78;101855.06;5096562;28;20546;-72
2022/10/06 11:07:49;;;;;;;3.13;1.23;;;;;;;33.45;26.68;101852.19;5096818;28;20463;-73
2022/10/06 11:10:20;;;;;;;3.43;1.30;;;;;;;29.88;29.20;101860.72;5101355;28;20466;-72
2022/10/06 11:13:02;;;;;;;4.87;1.50;;;;;;;25.78;34.42;101837.09;5102845;28;20422;-73
2022/10/06 11:15:44;;;;;;;4.73;1.90;;;;;;;24.90;36.74;101835.38;5102082;28;20446;-72
2022/10/06 11:18:21;;;;;;;7.13;1.20;;;;;;;25.64;36.00;101829.13;5102971;28;20460;-73
2022/10/06 11:20:52;;;;;;;4.90;1.40;;;;;;;27.31;33.06;101830.66;5103431;28;20429;-71
2022/10/06 11:23:36;;;;;;;3.10;1.53;;;;;;;28.23;31.66;101834.81;5104892;28;20419;-74
2022/10/06 11:26:10;;;;;;;3.40;1.30;;;;;;;26.99;32.97;101828.97;5097170;28;20449;-73
2022/10/06 11:28:44;;;;;;;3.57;1.27;;;;;;;25.20;34.48;101831.06;5097268;28;20469;-72
2022/10/06 11:31:21;;;;;;;3.40;1.17;;;;;;;26.05;34.00;101830.16;5097402;28;20470;-72
2022/10/06 11:33:51;;;;;;;4.60;1.10;;;;;;;28.49;31.41;101832.25;5096663;28;20430;-72
2022/10/06 11:36:28;;;;;;;4.80;1.53;;;;;;;30.65;29.13;101825.63;5096023;28;20422;-72
2022/10/06 11:39:02;;;;;;;3.37;1.23;;;;;;;32.38;27.02;101835.94;5095992;28;20761;-72
2022/10/06 11:41:34;;;;;;;4.40;1.57;;;;;;;29.56;29.46;101820.50;5096225;28;20426;-73
2022/10/06 11:44:11;;;;;;;5.20;1.80;;;;;;;30.38;29.05;101826.69;5096465;28;20517;-73